createdAt,value
2023-11-27T00:00:37.153Z,3.80
2023-11-27T00:07:36.401Z,3.73
2023-11-27T00:10:31.703Z,4.33
2023-11-27T00:13:01.158Z,4.40
2023-11-27T00:15:28.749Z,4.93
2023-11-27T00:17:56.028Z,4.67
2023-11-27T00:20:23.549Z,4.63
2023-11-27T00:22:50.576Z,4.70
2023-11-27T00:25:17.604Z,3.90
2023-11-27T00:27:52.016Z,3.90
2023-11-27T00:30:18.896Z,4.50
2023-11-27T00:32:45.938Z,4.37
2023-11-27T00:35:13.309Z,4.23
2023-11-27T00:37:40.223Z,5.37
2023-11-27T00:40:07.691Z,4.77
2023-11-27T00:42:34.628Z,5.17
2023-11-27T00:45:09.197Z,5.63
2023-11-27T00:47:36.670Z,5.27
2023-11-27T00:50:04.947Z,5.70
2023-11-27T00:52:32.758Z,5.17
2023-11-27T00:54:59.795Z,4.30
2023-11-27T00:57:26.810Z,5.83
2023-11-27T00:59:54.022Z,5.33
2023-11-27T01:02:21.014Z,5.13
2023-11-27T01:04:48.007Z,5.27
2023-11-27T01:07:15.002Z,5.17
2023-11-27T01:09:42.259Z,5.00
2023-11-27T01:12:09.332Z,5.23
2023-11-27T01:14:36.287Z,5.10
2023-11-27T01:17:03.276Z,4.90
2023-11-27T01:19:30.223Z,5.90
2023-11-27T01:22:04.961Z,5.57
2023-11-27T01:24:31.942Z,5.10
2023-11-27T01:26:58.826Z,5.50
2023-11-27T01:29:25.749Z,5.23
2023-11-27T01:31:52.686Z,5.27
2023-11-27T01:34:19.844Z,4.60
2023-11-27T01:36:47.360Z,4.40
2023-11-27T01:39:21.479Z,5.00
2023-11-27T01:41:48.399Z,5.13
2023-11-27T01:44:15.355Z,4.20
2023-11-27T01:46:48.845Z,4.53
2023-11-27T01:49:19.003Z,4.70
2023-11-27T01:51:47.898Z,4.40
2023-11-27T01:54:16.173Z,3.93
2023-11-27T01:56:50.936Z,4.50
2023-11-27T01:59:18.248Z,3.93
2023-11-27T02:01:45.426Z,3.40
2023-11-27T02:04:12.541Z,4.00
2023-11-27T02:06:39.513Z,3.07
2023-11-27T02:09:06.611Z,2.80
2023-11-27T02:11:33.545Z,3.30
2023-11-27T02:14:00.855Z,3.30
2023-11-27T02:16:27.795Z,3.40
2023-11-27T02:18:54.797Z,3.77
2023-11-27T02:23:54.805Z,3.03
2023-11-27T02:26:29.149Z,3.17
2023-11-27T02:28:58.780Z,3.50
2023-11-27T02:31:26.106Z,2.90
2023-11-27T02:33:53.383Z,3.70
2023-11-27T02:36:21.688Z,3.00
2023-11-27T02:38:48.608Z,3.30
2023-11-27T02:41:15.509Z,3.57
2023-11-27T02:43:42.392Z,3.00
2023-11-27T02:46:09.481Z,2.90
2023-11-27T02:48:36.664Z,2.80
2023-11-27T02:51:05.848Z,3.10
2023-11-27T02:53:33.743Z,2.87
2023-11-27T02:56:00.682Z,3.17
2023-11-27T02:58:27.680Z,3.53
2023-11-27T03:00:54.681Z,3.93
2023-11-27T03:03:21.633Z,3.47
2023-11-27T03:05:48.508Z,3.50
2023-11-27T03:08:15.992Z,3.47
2023-11-27T03:10:42.903Z,3.70
2023-11-27T03:13:09.887Z,4.40
2023-11-27T03:15:36.763Z,3.57
2023-11-27T03:18:03.805Z,4.00
2023-11-27T03:20:30.850Z,4.50
2023-11-27T03:22:57.833Z,4.90
2023-11-27T03:25:25.125Z,5.10
2023-11-27T03:27:52.076Z,4.27
2023-11-27T03:30:20.655Z,5.07
2023-11-27T03:32:47.695Z,4.37
2023-11-27T03:35:14.645Z,5.10
2023-11-27T03:37:41.625Z,4.70
2023-11-27T03:40:09.386Z,4.73
2023-11-27T03:42:36.451Z,5.23
2023-11-27T03:45:03.998Z,5.60
2023-11-27T03:47:30.933Z,5.27
2023-11-27T03:49:58.422Z,4.93
2023-11-27T03:52:25.368Z,5.83
2023-11-27T03:54:52.657Z,5.43
2023-11-27T03:57:20.932Z,5.20
2023-11-27T03:59:49.237Z,6.00
2023-11-27T04:02:16.259Z,5.60
2023-11-27T04:04:43.271Z,6.57
2023-11-27T04:07:10.442Z,6.53
2023-11-27T04:09:38.598Z,5.87
2023-11-27T04:12:06.463Z,5.90
2023-11-27T04:14:34.722Z,5.30
2023-11-27T04:17:05.034Z,5.27
2023-11-27T04:19:32.086Z,5.53
2023-11-27T04:21:58.987Z,5.53
2023-11-27T04:24:25.880Z,6.30
2023-11-27T04:26:52.854Z,6.27
2023-11-27T04:29:19.801Z,5.73
2023-11-27T04:32:02.018Z,5.80
2023-11-27T04:34:29.020Z,5.97
2023-11-27T04:36:55.989Z,5.60
2023-11-27T04:39:24.273Z,5.80
2023-11-27T04:41:51.169Z,5.93
2023-11-27T04:44:20.235Z,4.93
2023-11-27T04:46:47.173Z,5.57
2023-11-27T04:49:14.279Z,5.80
2023-11-27T04:51:41.184Z,5.97
2023-11-27T04:54:08.480Z,4.93
2023-11-27T04:56:35.454Z,5.23
2023-11-27T04:59:02.438Z,5.73
2023-11-27T05:01:29.556Z,6.23
2023-11-27T05:03:56.999Z,5.77
2023-11-27T05:06:24.120Z,6.57
2023-11-27T05:08:50.979Z,6.00
2023-11-27T05:11:21.076Z,6.00
2023-11-27T05:13:51.579Z,7.30
2023-11-27T05:16:19.026Z,7.07
2023-11-27T05:18:46.511Z,6.90
2023-11-27T05:21:14.611Z,6.10
2023-11-27T05:23:44.734Z,6.30
2023-11-27T05:26:12.824Z,6.13
2023-11-27T05:28:40.974Z,6.20
2023-11-27T05:31:08.092Z,6.60
2023-11-27T05:33:35.244Z,6.60
2023-11-27T05:36:05.222Z,5.70
2023-11-27T05:38:32.417Z,6.40
2023-11-27T05:41:02.481Z,5.67
2023-11-27T05:43:29.656Z,6.80
2023-11-27T05:45:57.844Z,6.97
2023-11-27T05:48:24.909Z,5.77
2023-11-27T05:50:51.771Z,6.03
2023-11-27T05:53:18.719Z,6.40
2023-11-27T05:55:45.653Z,6.00
2023-11-27T05:58:12.736Z,5.77
2023-11-27T06:00:39.976Z,6.07
2023-11-27T06:03:07.062Z,6.50
2023-11-27T06:05:33.996Z,5.10
2023-11-27T06:08:01.282Z,5.43
2023-11-27T06:10:28.262Z,5.80
2023-11-27T06:12:55.232Z,5.13
2023-11-27T06:15:22.257Z,5.77
2023-11-27T06:17:49.179Z,5.73
2023-11-27T06:20:16.115Z,6.13
2023-11-27T06:22:43.038Z,6.13
2023-11-27T06:25:10.719Z,5.20
2023-11-27T06:27:38.020Z,5.30
2023-11-27T06:30:05.387Z,5.30
2023-11-27T06:32:32.610Z,5.30
2023-11-27T06:34:59.589Z,6.00
2023-11-27T06:37:28.293Z,5.20
2023-11-27T06:39:56.080Z,4.80
2023-11-27T06:42:23.092Z,5.77
2023-11-27T06:44:50.039Z,5.27
2023-11-27T06:47:18.071Z,4.47
2023-11-27T06:49:45.170Z,4.60
2023-11-27T06:52:12.081Z,4.93
2023-11-27T06:54:39.153Z,5.40
2023-11-27T06:57:06.023Z,5.10
2023-11-27T06:59:32.977Z,4.90
2023-11-27T07:01:59.961Z,4.80
2023-11-27T07:04:26.939Z,5.20
2023-11-27T07:06:53.908Z,5.80
2023-11-27T07:09:24.222Z,5.37
2023-11-27T07:11:51.471Z,6.27
2023-11-27T07:14:18.392Z,5.80
2023-11-27T07:16:45.376Z,5.90
2023-11-27T07:19:15.009Z,5.50
2023-11-27T07:21:42.800Z,4.80
2023-11-27T07:24:10.314Z,5.40
2023-11-27T07:26:37.306Z,6.00
2023-11-27T07:29:05.326Z,5.47
2023-11-27T07:31:32.964Z,5.27
2023-11-27T07:34:01.829Z,6.03
2023-11-27T07:36:28.927Z,5.30
2023-11-27T07:38:57.100Z,4.97
2023-11-27T07:41:24.817Z,5.40
2023-11-27T07:43:51.867Z,5.27
2023-11-27T07:46:19.796Z,5.70
2023-11-27T07:48:47.862Z,5.20
2023-11-27T07:51:14.947Z,4.47
2023-11-27T07:53:41.904Z,5.23
2023-11-27T07:56:09.362Z,4.67
2023-11-27T07:58:38.108Z,5.07
2023-11-27T08:01:05.623Z,5.40
2023-11-27T08:03:32.845Z,5.20
2023-11-27T08:06:00.647Z,5.20
2023-11-27T08:08:27.517Z,4.70
2023-11-27T08:10:54.454Z,5.27
2023-11-27T08:13:23.479Z,5.20
2023-11-27T08:15:51.257Z,4.90
2023-11-27T08:18:18.341Z,5.50
2023-11-27T08:20:45.265Z,4.80
2023-11-27T08:23:13.862Z,5.40
2023-11-27T08:25:45.140Z,5.77
2023-11-27T08:28:12.188Z,5.90
2023-11-27T08:30:42.566Z,5.60
2023-11-27T08:33:10.205Z,4.90
2023-11-27T08:35:37.228Z,4.80
2023-11-27T08:38:05.658Z,4.53
2023-11-27T08:40:32.823Z,4.80
2023-11-27T08:43:01.657Z,4.97
2023-11-27T08:45:28.728Z,4.20
2023-11-27T08:47:56.735Z,4.27
2023-11-27T08:50:26.457Z,4.87
2023-11-27T08:52:59.513Z,4.23
2023-11-27T08:55:31.329Z,4.27
2023-11-27T08:58:02.114Z,4.20
2023-11-27T09:00:30.000Z,4.63
2023-11-27T09:03:00.292Z,5.43
2023-11-27T09:05:32.272Z,4.33
2023-11-27T09:08:01.963Z,4.93
2023-11-27T09:10:29.440Z,5.03
2023-11-27T09:12:57.217Z,4.80
2023-11-27T09:15:24.585Z,4.00
2023-11-27T09:17:51.889Z,3.60
2023-11-27T09:20:19.115Z,4.60
2023-11-27T09:22:46.151Z,4.83
2023-11-27T09:25:14.586Z,4.67
2023-11-27T09:27:44.788Z,3.97
2023-11-27T09:30:12.054Z,4.30
2023-11-27T09:32:40.024Z,4.37
2023-11-27T09:35:16.429Z,3.67
2023-11-27T09:37:44.262Z,3.90
2023-11-27T09:40:13.413Z,5.30
2023-11-27T09:42:46.912Z,4.53
2023-11-27T09:45:20.545Z,4.20
2023-11-27T09:47:50.147Z,4.27
2023-11-27T09:50:18.207Z,3.90
2023-11-27T09:52:54.892Z,5.33
2023-11-27T09:55:22.337Z,4.70
2023-11-27T09:57:50.651Z,4.03
2023-11-27T10:00:20.178Z,5.43
2023-11-27T10:02:51.164Z,5.20
2023-11-27T10:05:19.599Z,4.60
2023-11-27T10:07:51.659Z,4.37
2023-11-27T10:10:27.301Z,3.30
2023-11-27T10:13:06.796Z,4.50
2023-11-27T10:15:36.878Z,3.90
2023-11-27T10:18:09.812Z,4.93
2023-11-27T10:20:41.810Z,3.73
2023-11-27T10:23:12.172Z,3.87
2023-11-27T10:25:39.295Z,5.13
2023-11-27T10:28:07.419Z,4.80
2023-11-27T10:30:34.509Z,4.30
2023-11-27T10:33:02.639Z,4.83
2023-11-27T10:35:33.774Z,4.60
2023-11-27T10:38:01.924Z,5.10
2023-11-27T10:40:29.176Z,4.40
2023-11-27T10:43:01.599Z,4.40
2023-11-27T10:45:34.238Z,4.10
2023-11-27T10:48:03.729Z,3.73
2023-11-27T10:50:34.230Z,3.20
2023-11-27T10:53:01.357Z,2.40
2023-11-27T10:55:30.673Z,3.80
2023-11-27T10:57:58.039Z,3.60
2023-11-27T11:00:41.029Z,2.60
2023-11-27T11:03:15.945Z,2.90
2023-11-27T11:05:51.165Z,2.33
2023-11-27T11:08:28.313Z,2.63
2023-11-27T11:10:56.791Z,2.40
2023-11-27T11:13:25.916Z,3.00
2023-11-27T11:16:15.639Z,3.20
2023-11-27T11:18:53.784Z,2.50
2023-11-27T11:21:43.426Z,2.77
2023-11-27T11:24:12.957Z,1.97
2023-11-27T11:26:48.985Z,2.03
2023-11-27T11:29:24.934Z,2.00
2023-11-27T11:32:09.789Z,2.90
2023-11-27T11:34:39.580Z,2.43
2023-11-27T11:37:07.668Z,2.60
2023-11-27T11:39:35.217Z,2.40
2023-11-27T11:42:14.658Z,2.40
2023-11-27T11:44:42.714Z,1.83
2023-11-27T11:47:30.032Z,2.13
2023-11-27T11:50:19.240Z,2.73
2023-11-27T11:52:48.504Z,2.20
2023-11-27T11:55:23.182Z,1.80
2023-11-27T11:57:50.097Z,3.00
2023-11-27T12:00:23.542Z,3.20
2023-11-27T12:02:56.302Z,2.90
2023-11-27T12:05:26.809Z,4.10
2023-11-27T12:07:54.162Z,3.70
2023-11-27T12:10:21.142Z,4.00
2023-11-27T12:12:50.547Z,3.00
2023-11-27T12:15:18.123Z,3.00
2023-11-27T12:17:51.476Z,3.20
2023-11-27T12:20:22.836Z,3.33
2023-11-27T12:22:52.627Z,3.03
2023-11-27T12:25:19.647Z,2.70
2023-11-27T12:27:48.099Z,2.47
2023-11-27T12:30:21.598Z,3.17
2023-11-27T12:32:52.389Z,2.97
2023-11-27T12:35:20.444Z,2.70
2023-11-27T12:37:49.585Z,2.50
2023-11-27T12:40:20.492Z,2.67
2023-11-27T12:42:48.443Z,2.60
2023-11-27T12:45:22.092Z,2.40
2023-11-27T12:47:52.787Z,2.30
2023-11-27T12:50:29.889Z,2.30
2023-11-27T12:53:10.452Z,2.60
2023-11-27T12:55:48.917Z,2.17
2023-11-27T12:58:19.248Z,3.03
2023-11-27T13:00:47.130Z,2.17
2023-11-27T13:03:20.071Z,2.13
2023-11-27T13:05:54.292Z,1.60
2023-11-27T13:08:25.739Z,2.20
2023-11-27T13:10:58.699Z,1.57
2023-11-27T13:13:27.227Z,1.87
2023-11-27T13:15:58.841Z,1.50
2023-11-27T13:18:30.129Z,1.80
2023-11-27T13:20:58.454Z,1.30
2023-11-27T13:23:27.123Z,1.73
2023-11-27T13:25:55.952Z,1.80
2023-11-27T13:28:23.540Z,1.43
2023-11-27T13:30:56.364Z,1.40
2023-11-27T13:33:23.806Z,1.33
2023-11-27T13:35:57.461Z,1.20
2023-11-27T13:38:25.678Z,1.40
2023-11-27T13:40:56.051Z,1.73
2023-11-27T13:43:26.750Z,1.60
2023-11-27T13:45:54.053Z,1.30
2023-11-27T13:48:23.339Z,1.40
2023-11-27T13:50:51.404Z,1.20
2023-11-27T13:53:18.628Z,1.27
2023-11-27T13:55:56.062Z,1.60
2023-11-27T13:58:32.409Z,1.43
2023-11-27T14:01:06.641Z,1.20
2023-11-27T14:03:35.946Z,1.40
2023-11-27T14:06:16.865Z,1.07
2023-11-27T14:09:07.516Z,1.27
2023-11-27T14:11:35.914Z,1.60
2023-11-27T14:14:10.814Z,2.00
2023-11-27T14:16:45.621Z,1.20
2023-11-27T14:19:14.554Z,1.20
2023-11-27T14:22:01.677Z,1.70
2023-11-27T14:24:45.455Z,1.27
2023-11-27T14:27:40.253Z,1.70
2023-11-27T14:30:13.976Z,1.40
2023-11-27T14:32:42.326Z,1.97
2023-11-27T14:35:09.353Z,1.50
2023-11-27T14:37:36.462Z,1.87
2023-11-27T14:40:18.877Z,1.20
2023-11-27T14:42:46.256Z,1.20
2023-11-27T14:45:16.543Z,1.73
2023-11-27T14:47:47.159Z,1.77
2023-11-27T14:50:21.456Z,1.97
2023-11-27T14:52:50.928Z,1.50
2023-11-27T14:55:20.751Z,1.60
2023-11-27T14:57:49.531Z,2.03
2023-11-27T15:00:28.308Z,1.53
2023-11-27T15:02:56.453Z,1.70
2023-11-27T15:05:23.539Z,2.10
2023-11-27T15:07:50.549Z,1.80
2023-11-27T15:10:18.291Z,1.20
2023-11-27T15:12:46.541Z,1.57
2023-11-27T15:15:18.836Z,1.40
2023-11-27T15:17:48.683Z,1.60
2023-11-27T15:20:17.975Z,1.53
2023-11-27T15:22:47.762Z,1.50
2023-11-27T15:25:23.349Z,1.30
2023-11-27T15:27:51.431Z,2.43
2023-11-27T15:30:19.035Z,2.00
2023-11-27T15:32:46.619Z,1.80
2023-11-27T15:35:17.367Z,2.63
2023-11-27T15:37:45.358Z,2.37
2023-11-27T15:40:19.164Z,2.33
2023-11-27T15:42:46.350Z,2.70
2023-11-27T15:45:17.070Z,2.40
2023-11-27T15:47:45.053Z,2.43
2023-11-27T15:50:15.405Z,2.80
2023-11-27T15:52:46.919Z,2.10
2023-11-27T15:55:14.809Z,2.63
2023-11-27T15:57:48.376Z,2.90
2023-11-27T16:00:15.818Z,2.40
2023-11-27T16:02:42.860Z,2.07
2023-11-27T16:05:10.524Z,2.10
2023-11-27T16:07:40.210Z,2.50
2023-11-27T16:10:17.931Z,2.97
2023-11-27T16:12:46.062Z,2.50
2023-11-27T16:15:15.687Z,3.27
2023-11-27T16:17:56.671Z,3.40
2023-11-27T16:20:27.486Z,2.80
2023-11-27T16:22:55.112Z,3.20
2023-11-27T16:25:23.059Z,2.60
2023-11-27T16:27:50.293Z,2.80
2023-11-27T16:30:22.103Z,2.50
2023-11-27T16:32:49.899Z,7.90
2023-11-27T16:35:22.586Z,3.13
2023-11-27T16:37:50.580Z,2.93
2023-11-27T16:40:18.263Z,2.20
2023-11-27T16:42:46.989Z,2.90
2023-11-27T16:45:14.089Z,3.13
2023-11-27T16:47:41.082Z,2.70
2023-11-27T16:50:14.149Z,2.40
2023-11-27T16:52:46.317Z,2.87
2023-11-27T16:55:21.501Z,3.20
2023-11-27T16:57:50.674Z,2.50
2023-11-27T17:00:24.514Z,3.27
2023-11-27T17:02:52.772Z,3.03
2023-11-27T17:05:20.318Z,3.40
2023-11-27T17:07:47.359Z,3.77
2023-11-27T17:10:19.531Z,3.30
2023-11-27T17:12:47.172Z,3.10
2023-11-27T17:15:14.742Z,4.13
2023-11-27T17:17:43.232Z,4.23
2023-11-27T17:20:11.344Z,4.77
2023-11-27T17:22:45.709Z,3.90
2023-11-27T17:25:19.683Z,4.93
2023-11-27T17:27:46.945Z,7.20
2023-11-27T17:30:14.229Z,4.50
2023-11-27T17:32:42.358Z,4.47
2023-11-27T17:35:13.856Z,4.20
2023-11-27T17:37:41.936Z,4.47
2023-11-27T17:40:13.535Z,3.30
2023-11-27T17:42:40.461Z,3.13
2023-11-27T17:45:10.632Z,3.60
2023-11-27T17:47:40.956Z,3.60
2023-11-27T17:50:15.164Z,3.40
2023-11-27T17:52:43.534Z,4.40
2023-11-27T17:55:15.080Z,3.83
2023-11-27T17:57:46.793Z,3.80
2023-11-27T18:00:15.246Z,3.00
2023-11-27T18:02:46.925Z,3.33
2023-11-27T18:05:14.958Z,3.30
2023-11-27T18:07:44.928Z,2.53
2023-11-27T18:10:12.438Z,3.50
2023-11-27T18:12:42.840Z,3.60
2023-11-27T18:15:10.823Z,3.40
2023-11-27T18:17:40.589Z,3.50
2023-11-27T18:20:10.120Z,3.10
2023-11-27T18:22:37.788Z,4.00
2023-11-27T18:25:10.570Z,3.50
2023-11-27T18:27:37.968Z,5.87
2023-11-27T18:30:09.634Z,5.53
2023-11-27T18:32:36.903Z,6.73
2023-11-27T18:35:04.071Z,8.20
2023-11-27T18:37:30.983Z,4.40
2023-11-27T18:39:58.336Z,3.80
2023-11-27T18:42:39.075Z,4.07
2023-11-27T18:45:10.113Z,3.80
2023-11-27T18:47:37.681Z,3.57
2023-11-27T18:50:05.432Z,3.70
2023-11-27T18:52:32.699Z,4.27
2023-11-27T18:54:59.692Z,4.33
2023-11-27T18:57:27.536Z,4.73
2023-11-27T18:59:54.409Z,3.93
2023-11-27T19:02:21.443Z,3.60
2023-11-27T19:04:48.603Z,3.93
2023-11-27T19:07:15.782Z,4.10
2023-11-27T19:09:44.129Z,3.57
2023-11-27T19:12:11.137Z,4.17
2023-11-27T19:14:38.256Z,3.97
2023-11-27T19:17:05.979Z,4.40
2023-11-27T19:19:35.005Z,4.40
2023-11-27T19:22:03.039Z,4.57
2023-11-27T19:24:30.745Z,5.07
2023-11-27T19:26:57.641Z,4.87
2023-11-27T19:29:24.586Z,4.40
2023-11-27T19:31:51.529Z,5.00
2023-11-27T19:34:18.656Z,4.73
2023-11-27T19:36:46.157Z,4.60
2023-11-27T19:39:18.857Z,5.67
2023-11-27T19:41:53.145Z,5.10
2023-11-27T19:44:21.245Z,5.00
2023-11-27T19:46:50.311Z,4.90
2023-11-27T19:49:20.415Z,5.43
2023-11-27T19:51:48.148Z,4.53
2023-11-27T19:54:19.530Z,6.27
2023-11-27T19:56:47.451Z,9.53
2023-11-27T19:59:15.275Z,7.13
2023-11-27T20:01:42.475Z,6.03
2023-11-27T20:04:09.594Z,5.87
2023-11-27T20:06:40.777Z,6.27
2023-11-27T20:09:12.837Z,5.47
2023-11-27T20:11:40.438Z,5.90
2023-11-27T20:14:08.151Z,6.03
2023-11-27T20:16:36.414Z,7.00
2023-11-27T20:19:06.383Z,6.90
2023-11-27T20:21:34.054Z,7.80
2023-11-27T20:24:01.187Z,7.10
2023-11-27T20:26:29.470Z,6.67
2023-11-27T20:28:59.284Z,6.60
2023-11-27T20:31:33.788Z,5.90
2023-11-27T20:34:04.508Z,6.73
2023-11-27T20:36:32.160Z,7.00
2023-11-27T20:39:01.034Z,5.73
2023-11-27T20:41:28.295Z,7.27
2023-11-27T20:43:58.556Z,7.00
2023-11-27T20:46:28.289Z,7.47
2023-11-27T20:48:59.451Z,6.07
2023-11-27T20:51:30.067Z,6.27
2023-11-27T20:53:57.969Z,7.40
2023-11-27T20:56:26.952Z,8.70
2023-11-27T20:58:54.220Z,9.80
2023-11-27T21:01:24.154Z,10.17
2023-11-27T21:03:52.867Z,9.80
2023-11-27T21:06:23.755Z,9.80
2023-11-27T21:08:51.670Z,10.10
2023-11-27T21:11:20.245Z,8.63
2023-11-27T21:13:48.435Z,9.40
2023-11-27T21:16:15.642Z,8.80
2023-11-27T21:18:46.194Z,8.50
2023-11-27T21:21:13.759Z,9.03
2023-11-27T21:23:40.625Z,8.27
2023-11-27T21:26:08.532Z,8.10
2023-11-27T21:28:36.756Z,7.30
2023-11-27T21:31:04.245Z,6.90
2023-11-27T21:33:31.369Z,6.90
2023-11-27T21:35:59.438Z,6.87
2023-11-27T21:38:26.498Z,5.40
2023-11-27T21:40:54.035Z,4.60
2023-11-27T21:43:21.531Z,5.53
2023-11-27T21:45:49.166Z,5.00
2023-11-27T21:48:16.441Z,4.20
2023-11-27T21:50:43.470Z,5.00
2023-11-27T21:53:10.331Z,4.87
2023-11-27T21:55:37.457Z,5.00
2023-11-27T21:58:04.419Z,4.60
2023-11-27T22:00:32.285Z,4.73
2023-11-27T22:02:59.444Z,5.50
2023-11-27T22:05:29.192Z,6.43
2023-11-27T22:07:56.498Z,5.93
2023-11-27T22:10:23.600Z,6.63
2023-11-27T22:12:50.749Z,5.73
2023-11-27T22:15:17.767Z,5.97
2023-11-27T22:17:44.906Z,5.73
2023-11-27T22:20:15.284Z,6.40
2023-11-27T22:22:43.714Z,5.70
2023-11-27T22:25:11.687Z,6.43
2023-11-27T22:27:38.751Z,7.10
2023-11-27T22:30:08.168Z,7.20
2023-11-27T22:32:35.332Z,7.67
2023-11-27T22:35:03.504Z,6.57
2023-11-27T22:37:30.549Z,6.23
2023-11-27T22:39:57.477Z,5.40
2023-11-27T22:42:24.356Z,5.67
2023-11-27T22:44:51.319Z,5.43
2023-11-27T22:47:18.214Z,4.90
2023-11-27T22:49:45.241Z,5.30
2023-11-27T22:52:13.444Z,5.40
2023-11-27T22:54:43.239Z,4.63
2023-11-27T22:57:10.323Z,4.70
2023-11-27T22:59:39.369Z,4.00
2023-11-27T23:02:06.924Z,4.00
2023-11-27T23:04:34.010Z,3.57
2023-11-27T23:07:01.308Z,3.40
2023-11-27T23:09:28.153Z,3.00
2023-11-27T23:11:55.092Z,3.50
2023-11-27T23:14:22.137Z,3.00
2023-11-27T23:16:49.148Z,3.27
2023-11-27T23:19:16.210Z,2.50
2023-11-27T23:21:43.197Z,2.63
2023-11-27T23:24:20.040Z,2.40
2023-11-27T23:26:51.224Z,2.37
2023-11-27T23:29:18.413Z,2.00
2023-11-27T23:31:48.212Z,2.20
2023-11-27T23:34:15.185Z,2.20
2023-11-27T23:36:42.300Z,1.93
2023-11-27T23:39:09.804Z,2.17
2023-11-27T23:41:37.046Z,1.63
2023-11-27T23:44:04.159Z,1.80
2023-11-27T23:46:31.515Z,1.63
2023-11-27T23:49:01.398Z,1.30
2023-11-27T23:51:29.272Z,1.30
2023-11-27T23:53:56.563Z,1.60
2023-11-27T23:56:23.608Z,1.50
2023-11-27T23:58:50.729Z,1.27
